createdAt,value
2022-12-17T00:00:02.281Z,9.30
2022-12-17T00:05:23.808Z,12.47
2022-12-17T00:10:47.107Z,9.37
2022-12-17T00:16:12.382Z,11.73
2022-12-17T00:21:35.654Z,9.57
2022-12-17T00:27:01.995Z,11.37
2022-12-17T00:32:24.172Z,12.27
2022-12-17T00:38:29.397Z,11.37
2022-12-17T00:43:53.836Z,12.40
2022-12-17T00:49:22.849Z,12.97
2022-12-17T00:54:48.747Z,15.80
2022-12-17T01:00:11.592Z,12.77
2022-12-17T01:05:35.073Z,14.33
2022-12-17T01:10:58.222Z,15.67
2022-12-17T01:16:23.566Z,14.67
2022-12-17T01:21:44.965Z,14.43
2022-12-17T01:27:05.926Z,14.50
2022-12-17T01:32:28.579Z,11.90
2022-12-17T01:37:49.751Z,12.40
2022-12-17T01:43:13.415Z,12.73
2022-12-17T01:48:36.562Z,12.90
2022-12-17T01:54:03.583Z,9.63
2022-12-17T01:59:26.538Z,10.87
2022-12-17T02:04:49.231Z,11.00
2022-12-17T02:10:20.776Z,10.10
2022-12-17T02:15:50.340Z,12.13
2022-12-17T02:21:16.626Z,11.77
2022-12-17T02:26:51.382Z,11.00
2022-12-17T02:32:12.781Z,10.13
2022-12-17T02:37:37.107Z,10.77
2022-12-17T02:43:01.863Z,14.50
2022-12-17T02:48:25.205Z,14.33
2022-12-17T02:53:46.162Z,12.13
2022-12-17T02:59:09.636Z,11.10
2022-12-17T03:04:33.338Z,12.30
2022-12-17T03:09:56.535Z,11.40
2022-12-17T03:15:24.064Z,14.00
2022-12-17T03:20:59.778Z,10.63
2022-12-17T03:26:21.702Z,10.37
2022-12-17T03:31:48.677Z,12.73
2022-12-17T03:37:10.832Z,12.43
2022-12-17T03:42:34.831Z,12.33
2022-12-17T03:48:00.563Z,13.53
2022-12-17T03:53:23.626Z,11.10
2022-12-17T03:58:44.438Z,10.00
2022-12-17T04:04:07.110Z,12.60
2022-12-17T04:09:41.556Z,12.67
2022-12-17T04:15:04.170Z,10.97
2022-12-17T04:20:27.568Z,9.40
2022-12-17T04:25:51.593Z,10.73
2022-12-17T04:31:12.584Z,13.90
2022-12-17T04:36:35.307Z,12.20
2022-12-17T04:48:38.768Z,11.47
2022-12-17T04:54:56.012Z,12.50
2022-12-17T05:06:34.598Z,10.73
2022-12-17T05:11:58.452Z,12.90
2022-12-17T05:17:25.848Z,13.10
2022-12-17T05:22:46.816Z,14.03
2022-12-17T05:28:07.837Z,12.43
2022-12-17T05:33:30.783Z,13.37
2022-12-17T05:38:51.834Z,12.87
2022-12-17T05:44:17.910Z,13.67
2022-12-17T05:49:45.848Z,13.37
2022-12-17T05:55:07.092Z,11.80
2022-12-17T06:00:29.517Z,12.33
2022-12-17T06:05:56.994Z,10.20
2022-12-17T06:11:19.193Z,12.33
2022-12-17T06:16:36.706Z,7.80
2022-12-17T06:21:59.094Z,10.60
2022-12-17T06:27:20.261Z,13.60
2022-12-17T06:32:41.118Z,12.27
2022-12-17T06:38:03.495Z,14.03
2022-12-17T06:43:36.944Z,11.60
2022-12-17T06:49:06.687Z,10.73
2022-12-17T06:54:43.392Z,12.27
2022-12-17T07:00:07.047Z,12.40
2022-12-17T07:05:33.819Z,12.13
2022-12-17T07:10:59.486Z,13.70
2022-12-17T07:16:21.454Z,12.03
2022-12-17T07:21:51.433Z,12.53
2022-12-17T07:27:16.670Z,12.90
2022-12-17T07:32:41.000Z,13.17
2022-12-17T07:38:47.439Z,13.23
2022-12-17T07:44:13.152Z,14.40
2022-12-17T07:49:34.024Z,13.37
2022-12-17T07:54:55.968Z,13.23
2022-12-17T08:00:31.903Z,14.27
2022-12-17T08:12:03.539Z,14.93
2022-12-17T08:17:28.708Z,14.63
2022-12-17T08:22:51.956Z,14.53
2022-12-17T08:34:08.015Z,15.63
2022-12-17T08:39:29.009Z,15.67
2022-12-17T08:45:07.545Z,14.23
2022-12-17T08:50:39.483Z,14.47
2022-12-17T08:56:01.148Z,16.60
2022-12-17T09:01:30.108Z,15.93
2022-12-17T09:07:01.969Z,16.00
2022-12-17T09:12:28.722Z,15.70
2022-12-17T09:17:57.457Z,17.80
2022-12-17T09:23:35.316Z,15.10
2022-12-17T09:28:57.553Z,15.33
2022-12-17T09:34:18.822Z,16.20
2022-12-17T09:39:52.690Z,16.47
2022-12-17T09:45:23.429Z,17.93
2022-12-17T09:50:47.585Z,16.53
2022-12-17T09:56:23.202Z,17.63
2022-12-17T10:01:55.887Z,15.87
2022-12-17T10:07:19.796Z,15.93
2022-12-17T10:12:47.443Z,16.27
2022-12-17T10:18:10.780Z,15.87
2022-12-17T10:23:42.782Z,16.80
2022-12-17T10:29:05.810Z,16.07
2022-12-17T10:34:32.856Z,15.63
2022-12-17T10:40:05.609Z,14.50
2022-12-17T10:45:50.084Z,15.47
2022-12-17T10:51:17.032Z,15.30
2022-12-17T10:56:46.298Z,14.20
2022-12-17T11:08:06.561Z,13.27
2022-12-17T11:13:35.102Z,12.97
2022-12-17T11:19:18.619Z,13.27
2022-12-17T11:24:50.892Z,14.37
2022-12-17T11:30:41.933Z,13.37
2022-12-17T11:36:23.170Z,12.70
2022-12-17T11:41:59.494Z,11.97
2022-12-17T11:47:38.979Z,10.17
2022-12-17T11:53:38.029Z,9.60
2022-12-17T11:59:02.970Z,10.70
2022-12-17T12:04:40.190Z,10.60
2022-12-17T12:10:16.832Z,10.63
2022-12-17T12:16:05.995Z,10.37
2022-12-17T12:22:04.545Z,9.93
2022-12-17T12:27:42.821Z,8.83
2022-12-17T12:33:33.319Z,9.57
2022-12-17T12:39:05.249Z,9.67
2022-12-17T12:44:46.939Z,7.60
2022-12-17T12:50:20.585Z,6.87
2022-12-17T12:56:01.915Z,7.60
2022-12-17T13:01:43.327Z,9.77
2022-12-17T13:07:00.731Z,9.27
2022-12-17T13:12:34.648Z,9.13
2022-12-17T13:17:53.916Z,7.80
2022-12-17T13:23:33.415Z,10.07
2022-12-17T13:34:59.180Z,8.17
2022-12-17T13:40:33.861Z,8.77
2022-12-17T13:45:53.477Z,6.73
2022-12-17T13:51:01.397Z,6.83
2022-12-17T13:56:05.761Z,6.27
2022-12-17T14:01:15.384Z,7.67
2022-12-17T14:06:25.658Z,6.80
2022-12-17T14:11:50.735Z,6.10
2022-12-17T14:16:59.965Z,6.23
2022-12-17T14:22:05.712Z,7.53
2022-12-17T14:27:30.937Z,5.50
2022-12-17T14:32:40.815Z,6.90
2022-12-17T14:37:52.326Z,7.23
2022-12-17T14:43:01.849Z,8.53
2022-12-17T14:48:07.538Z,7.83
2022-12-17T14:53:29.422Z,7.50
2022-12-17T14:58:33.709Z,7.60
2022-12-17T15:03:53.616Z,8.30
2022-12-17T15:09:05.330Z,6.53
2022-12-17T15:14:13.256Z,7.30
2022-12-17T15:19:17.372Z,8.30
2022-12-17T15:24:23.641Z,7.13
2022-12-17T15:29:27.588Z,7.43
2022-12-17T15:34:31.522Z,9.33
2022-12-17T15:39:39.611Z,5.73
2022-12-17T15:44:43.963Z,6.00
2022-12-17T15:49:49.209Z,4.97
2022-12-17T15:55:00.399Z,6.37
2022-12-17T16:00:07.218Z,7.47
2022-12-17T16:05:13.069Z,6.23
2022-12-17T16:10:46.967Z,7.07
2022-12-17T16:16:04.066Z,6.43
2022-12-17T16:21:27.303Z,6.43
2022-12-17T16:26:39.367Z,5.70
2022-12-17T16:31:53.885Z,5.93
2022-12-17T16:37:02.634Z,6.73
2022-12-17T16:42:14.364Z,7.90
2022-12-17T16:47:32.122Z,7.13
2022-12-17T16:53:01.531Z,6.57
2022-12-17T16:58:18.524Z,6.93
2022-12-17T17:03:34.235Z,7.00
2022-12-17T17:08:48.576Z,8.13
2022-12-17T17:14:17.847Z,8.17
2022-12-17T17:19:37.793Z,7.60
2022-12-17T17:24:41.795Z,8.03
2022-12-17T17:29:48.467Z,7.87
2022-12-17T17:34:52.527Z,7.80
2022-12-17T17:39:58.072Z,8.20
2022-12-17T17:45:12.270Z,7.00
2022-12-17T17:50:16.534Z,7.50
2022-12-17T17:55:23.508Z,7.57
2022-12-17T18:00:32.247Z,7.60
2022-12-17T18:05:49.996Z,7.83
2022-12-17T18:11:03.401Z,9.03
2022-12-17T18:16:12.083Z,9.47
2022-12-17T18:21:22.440Z,9.20
2022-12-17T18:26:32.814Z,7.10
2022-12-17T18:31:41.307Z,8.80
2022-12-17T18:36:46.741Z,9.43
2022-12-17T18:42:11.001Z,10.03
2022-12-17T18:47:19.708Z,10.07
2022-12-17T18:52:33.317Z,10.53
2022-12-17T18:57:44.513Z,11.13
2022-12-17T19:02:50.723Z,11.97
2022-12-17T19:08:01.641Z,10.33
2022-12-17T19:13:12.491Z,8.53
2022-12-17T19:18:27.613Z,8.97
2022-12-17T19:23:33.639Z,7.87
2022-12-17T19:28:46.305Z,9.60
2022-12-17T19:34:01.144Z,12.80
2022-12-17T19:39:08.649Z,14.30
2022-12-17T19:44:16.205Z,14.37
2022-12-17T19:49:32.249Z,13.83
2022-12-17T19:54:41.854Z,13.53
2022-12-17T19:59:50.141Z,13.23
2022-12-17T20:05:00.748Z,14.07
2022-12-17T20:10:08.568Z,13.33
2022-12-17T20:15:48.824Z,15.07
2022-12-17T20:20:55.609Z,13.37
2022-12-17T20:26:24.575Z,12.73
2022-12-17T20:31:33.000Z,13.40
2022-12-17T20:36:57.613Z,12.67
2022-12-17T20:42:18.741Z,11.77
2022-12-17T20:47:27.020Z,11.97
2022-12-17T20:52:49.381Z,11.77
2022-12-17T20:59:00.838Z,11.80
2022-12-17T21:04:37.019Z,11.97
2022-12-17T21:09:57.781Z,13.10
2022-12-17T21:15:14.204Z,13.17
2022-12-17T21:20:23.639Z,12.83
2022-12-17T21:25:37.342Z,12.37
2022-12-17T21:30:51.688Z,12.63
2022-12-17T21:36:10.462Z,12.67
2022-12-17T21:42:16.244Z,12.97
2022-12-17T21:47:21.547Z,11.53
2022-12-17T21:52:37.416Z,13.40
2022-12-17T21:57:47.048Z,12.40
2022-12-17T22:02:57.114Z,12.73
2022-12-17T22:08:08.892Z,14.03
2022-12-17T22:13:46.605Z,14.83
2022-12-17T22:19:05.289Z,15.23
2022-12-17T22:24:31.405Z,15.03
2022-12-17T22:37:19.790Z,13.93
2022-12-17T22:44:38.490Z,14.10
2022-12-17T22:52:10.089Z,14.20
2022-12-17T22:57:36.007Z,13.17
2022-12-17T23:02:53.779Z,12.77
2022-12-17T23:07:58.751Z,10.80
2022-12-17T23:13:07.464Z,10.43
2022-12-17T23:18:15.308Z,10.03
2022-12-17T23:23:26.438Z,9.57
2022-12-17T23:28:35.392Z,9.03
2022-12-17T23:34:18.743Z,8.73
2022-12-17T23:39:39.551Z,8.03
2022-12-17T23:44:43.778Z,7.83
2022-12-17T23:49:52.658Z,9.33
2022-12-17T23:55:04.735Z,8.13
